Flight Track Log - Related Links

Times and Time Zones

All times are in EDT time to prevent confusion due to time zone crossing. See the AMX682 flight status page for this flight to view local times or setup timezone preferences in your user account.

Time Position Orientation Groundspeed Altitude Reporting Facility
EDT Latitude Longitude Course Direction KTS MPH feet Rate Location/Type
Mon 09:15:50 PM 24.9864 -97.2389 13° North 445 512 37,000  Level Houston Center
Mon 09:16:51 PM 25.1064 -97.2086 13° North 446 513 37,000 -49 Level Houston Center
Mon 09:17:52 PM 25.2261 -97.1811 12° North 444 511 36,900  Descending Houston Center
Mon 09:18:54 PM 25.3714 -97.1417 14° North 446 513 37,000 49 Climbing Houston Center
Mon 09:19:55 PM 25.4897 -97.1139 12° North 440 506 37,000  Level Houston Center
Mon 09:20:56 PM 25.6167 -97.0853 11° North 438 504 37,000  Level Houston Center
Mon 09:21:58 PM 25.7369 -97.0589 11° North 441 507 37,000  Level Houston Center
Mon 09:22:59 PM 25.8567 -97.0314 12° North 439 505 37,000  Level Houston Center
Mon 09:24:00 PM 25.9853 -97.0033 11° North 438 504 37,000  Level Houston Center
Mon 09:25:02 PM 26.1053 -96.9747 12° North 440 506 37,000  Level Houston Center
Mon 09:26:03 PM 26.2247 -96.9453 12° North 440 506 37,000  Level Houston Center
Mon 09:27:04 PM 26.3533 -96.9139 12° North 440 506 37,000  Level Houston Center
Mon 09:28:05 PM 26.4697 -96.8650 21° North 450 518 37,000  Level Houston Center
Mon 09:29:07 PM 26.5856 -96.8136 22° Northeast 449 517 37,000  Level Houston Center
Mon 09:30:08 PM 26.6981 -96.7656 21° North 442 509 37,000  Level Houston Center
Mon 09:31:09 PM 26.8125 -96.7144 22° Northeast 443 510 37,000  Level Houston Center
Mon 09:32:10 PM 26.9269 -96.6633 22° Northeast 442 509 37,000  Level Houston Center
Mon 09:33:12 PM 27.0419 -96.6139 21° North 442 509 37,000  Level Houston Center
Mon 09:34:13 PM 27.1575 -96.5625 22° Northeast 446 513 37,000  Level Houston Center
Mon 09:35:14 PM 27.2792 -96.5081 22° Northeast 447 514 37,000  Level Houston Center
Mon 09:37:16 PM 27.5111 -96.4056 21° North 449 517 37,000  Level Houston Center
Mon 09:38:17 PM 27.6275 -96.3536 22° Northeast 449 517 37,000  Level Houston Center
Mon 09:39:18 PM 27.7669 -96.2903 22° Northeast 451 519 37,000  Level Houston Center
Mon 09:40:19 PM 27.8850 -96.2375 22° Northeast 454 522 37,000  Level Houston Center
Mon 09:41:20 PM 28.0011 -96.1881 21° North 449 517 37,000 -49 Level Houston Center
Mon 09:42:22 PM 28.1186 -96.1361 21° North 453 521 36,900 -49 Descending Houston Center
Mon 09:43:23 PM 28.2350 -96.0819 22° Northeast 454 522 36,900 33 Level Houston Center
Mon 09:45:25 PM 28.4686 -95.9744 22° Northeast 452 520 37,000 33 Climbing Houston Center
Mon 09:46:26 PM 28.5808 -95.9239 22° Northeast 453 521 37,000  Level Houston Center
Mon 09:47:27 PM 28.7222 -95.8597 22° Northeast 454 522 37,000  Level Houston Center
Mon 09:49:30 PM 28.9597 -95.7506 22° Northeast 460 529 37,000  Level Houston Center
Mon 09:50:31 PM 29.0792 -95.6961 22° Northeast 463 533 37,000  Level Houston Center
Mon 09:51:32 PM 29.1981 -95.6422 22° Northeast 459 528 37,000  Level Houston Center
Mon 09:52:33 PM 29.3167 -95.5864 22° Northeast 459 528 37,000  Level Houston Center
Mon 09:53:34 PM 29.4347 -95.5328 22° Northeast 456 525 37,000  Level Houston Center
Mon 09:54:35 PM 29.5550 -95.4781 22° Northeast 457 526 37,000  Level Houston Center
Mon 09:57:00 PM 29.7887 -95.3485 22° Northeast  Level FlightAware Approximate
Mon 09:57:38 PM 29.9169 -95.3097 22° Northeast 454 522 37,000  Level Houston Center
Mon 09:58:39 PM 30.0353 -95.2531 23° Northeast 457 526 37,000  Level Houston Center
Mon 10:00:00 PM 30.1394 -95.1274 41° Northeast  Level FlightAware Approximate
Mon 10:00:41 PM 30.2761 -95.1397 41° Northeast 467 537 37,000  Level Houston Center
Mon 10:01:42 PM 30.3939 -95.0725 26° Northeast 470 541 37,000  Level Houston Center
Mon 10:02:43 PM 30.5136 -94.9933 30° Northeast 476 548 37,000  Level Houston Center
Mon 10:03:44 PM 30.6278 -94.9186 29° Northeast 472 543 37,000  Level Houston Center
Mon 10:04:45 PM 30.7667 -94.8306 29° Northeast 476 548 37,000  Level Houston Center
Mon 10:05:46 PM 30.8814 -94.7556 29° Northeast 474 545 37,000  Level Houston Center
Mon 10:06:16 PM 30.9239 -94.7281 29° Northeast 472 543 37,000  Level Fort Worth Center
Mon 10:07:15 PM 31.0369 -94.6519 30° Northeast 472 543 37,000  Level Fort Worth Center
Mon 10:08:16 PM 31.1544 -94.5806 27° Northeast 472 543 37,000  Level Fort Worth Center
Mon 10:09:16 PM 31.2697 -94.5067 29° Northeast 467 537 37,000  Level Fort Worth Center
Mon 10:10:16 PM 31.3828 -94.4325 29° Northeast 467 537 37,000  Level Fort Worth Center
Mon 10:11:16 PM 31.4997 -94.3533 30° Northeast 474 545 37,000  Level Fort Worth Center
Mon 10:12:16 PM 31.6128 -94.2811 29° Northeast 469 540 37,000  Level Fort Worth Center
Mon 10:13:16 PM 31.7239 -94.2067 30° Northeast 458 527 37,000  Level Fort Worth Center
Mon 10:14:16 PM 31.8325 -94.1344 29° Northeast 453 521 37,000  Level Fort Worth Center
Mon 10:15:16 PM 31.9433 -94.0619 29° Northeast 453 521 37,000  Level Fort Worth Center
Mon 10:16:16 PM 32.0500 -93.9917 29° Northeast 453 521 37,000  Level Fort Worth Center
Mon 10:17:16 PM 32.1608 -93.9189 29° Northeast 453 521 37,000  Level Fort Worth Center
Mon 10:18:16 PM 32.2711 -93.8361 32° Northeast 440 506 37,000  Level Fort Worth Center
Mon 10:19:16 PM 32.3797 -93.7631 30° Northeast 440 506 37,000  Level Fort Worth Center
Mon 10:20:16 PM 32.4883 -93.6919 29° Northeast 440 506 37,000  Level Fort Worth Center
Mon 10:21:16 PM 32.5928 -93.6236 29° Northeast 429 494 37,000  Level Fort Worth Center
Mon 10:22:16 PM 32.7031 -93.5500 29° Northeast 435 501 37,000  Level Fort Worth Center
Mon 10:23:16 PM 32.8094 -93.4761 30° Northeast 435 501 37,000  Level Fort Worth Center
Mon 10:24:16 PM 32.9178 -93.4044 29° Northeast 435 501 37,000  Level Fort Worth Center
Mon 10:25:16 PM 33.0239 -93.3303 30° Northeast 435 501 37,000  Level Fort Worth Center
Mon 10:26:16 PM 33.1239 -93.2614 30° Northeast 435 501 37,000  Level Fort Worth Center
Mon 10:27:16 PM 33.2300 -93.1919 29° Northeast 435 501 37,000  Level Fort Worth Center
Mon 10:28:16 PM 33.3381 -93.1169 30° Northeast 435 501 37,000  Level Fort Worth Center
Mon 10:29:16 PM 33.4464 -93.0444 29° Northeast 430 495 37,000  Level Fort Worth Center
Mon 10:29:32 PM 33.4847 -93.0222 26° Northeast 452 520 37,000  Level Memphis Center
Mon 10:30:32 PM 33.5822 -92.9531 31° Northeast 446 513 37,000  Level Memphis Center
Mon 10:31:33 PM 33.6903 -92.8764 31° Northeast 446 513 37,000  Level Memphis Center
Mon 10:32:32 PM 33.7983 -92.8044 29° Northeast 446 513 37,000  Level Memphis Center
Mon 10:33:32 PM 33.8975 -92.7372 29° Northeast 447 514 37,000  Level Memphis Center
Mon 10:34:33 PM 34.0225 -92.6453 31° Northeast 447 514 37,000  Level Memphis Center
Mon 10:35:32 PM 34.1156 -92.5750 32° Northeast 447 514 37,000  Level Memphis Center
Mon 10:36:32 PM 34.2211 -92.5047 29° Northeast 436 502 37,000  Level Memphis Center
Mon 10:38:32 PM 34.4322 -92.3542 30° Northeast 431 496 37,000  Level Memphis Center
Mon 10:39:32 PM 34.5336 -92.2808 31° Northeast 426 490 37,000  Level Memphis Center
Mon 10:41:32 PM 34.7503 -92.1592 25° Northeast 422 486 37,000  Level Memphis Center
Mon 10:42:32 PM 34.8633 -92.1264 13° North 416 479 37,000  Level Memphis Center
Mon 10:43:32 PM 34.9744 -92.0956 13° North 411 473 37,000  Level Memphis Center
Mon 10:44:32 PM 35.0875 -92.0650 12° North 411 473 37,000  Level Memphis Center
Mon 10:45:32 PM 35.2006 -92.0292 15° North 417 480 37,000  Level Memphis Center
Mon 10:46:32 PM 35.3158 -91.9958 13° North 412 474 37,000  Level Memphis Center
Mon 10:47:32 PM 35.4267 -91.9647 13° North 412 474 37,000  Level Memphis Center
Mon 10:48:32 PM 35.5419 -91.9314 13° North 412 474 37,000  Level Memphis Center
Mon 10:49:32 PM 35.6550 -91.8978 14° North 412 474 37,000  Level Memphis Center
Mon 10:50:32 PM 35.7681 -91.8667 13° North 412 474 37,000  Level Memphis Center
Mon 10:51:32 PM 35.8831 -91.8328 13° North 412 474 37,000  Level Memphis Center
Mon 10:52:32 PM 36.0086 -91.7964 13° North 404 465 37,000  Level Memphis Center
Mon 10:53:32 PM 36.1194 -91.7625 14° North 410 472 37,000  Level Memphis Center
Mon 10:54:32 PM 36.2242 -91.7308 14° North 416 479 37,000  Level Memphis Center
Mon 10:56:14 PM 36.4233 -91.6675 14° North 424 488 37,000  Level Kansas City Center
Mon 10:56:32 PM 36.4542 -91.6650 North 416 479 37,000  Level Memphis Center
Mon 10:58:16 PM 36.6569 -91.5992 15° North 423 487 37,000  Level Kansas City Center
Mon 10:59:17 PM 36.7714 -91.5633 14° North 424 488 37,000  Level Kansas City Center
Mon 11:00:18 PM 36.8861 -91.5328 12° North 422 486 37,000  Level Kansas City Center
Mon 11:01:19 PM 36.9997 -91.4992 13° North 418 481 37,000  Level Kansas City Center
Mon 11:02:20 PM 37.1158 -91.4639 14° North 424 488 37,000  Level Kansas City Center
Mon 11:03:21 PM 37.2328 -91.4283 14° North 428 493 37,000  Level Kansas City Center
Mon 11:04:22 PM 37.3494 -91.3911 14° North 429 494 37,000  Level Kansas City Center
Mon 11:05:23 PM 37.4892 -91.3489 13° North 430 495 37,000  Level Kansas City Center
Mon 11:06:24 PM 37.6058 -91.3119 14° North 431 496 37,000 -98 Level Kansas City Center
Mon 11:07:25 PM 37.7228 -91.2758 14° North 432 497 36,800 -590 Descending Kansas City Center
Mon 11:08:26 PM 37.8406 -91.2386 14° North 434 499 35,800 -893 Descending Kansas City Center
Mon 11:09:26 PM 37.9564 -91.2028 14° North 433 498 35,000 -397 Descending Kansas City Center
Mon 11:10:27 PM 38.0706 -91.1667 14° North 429 494 35,000  Level Kansas City Center
Mon 11:11:28 PM 38.1850 -91.1311 14° North 427 491 35,000  Level Kansas City Center
Mon 11:12:29 PM 38.3019 -91.0958 13° North 429 494 35,000  Level Kansas City Center
Mon 11:13:30 PM 38.4167 -91.0597 14° North 426 490 35,000  Level Kansas City Center
Mon 11:14:31 PM 38.5311 -91.0236 14° North 424 488 35,000  Level Kansas City Center
Mon 11:15:32 PM 38.6458 -90.9886 13° North 423 487 35,000  Level Kansas City Center
Mon 11:16:33 PM 38.7586 -90.9381 19° North 426 490 35,000  Level Kansas City Center
Mon 11:17:34 PM 38.8683 -90.8778 23° Northeast 426 490 35,000  Level Kansas City Center
Mon 11:18:35 PM 38.9794 -90.8192 22° Northeast 427 491 35,000  Level Kansas City Center
Mon 11:19:36 PM 39.0900 -90.7592 23° Northeast 428 493 35,000  Level Kansas City Center
Mon 11:20:37 PM 39.2011 -90.6978 23° Northeast 431 496 35,000  Level Kansas City Center
Mon 11:21:37 PM 39.3122 -90.6356 23° Northeast 433 498 35,000  Level Kansas City Center
Mon 11:22:38 PM 39.4242 -90.5739 23° Northeast 435 501 35,000  Level Kansas City Center
Mon 11:23:39 PM 39.5583 -90.5006 23° Northeast 436 502 35,000  Level Kansas City Center
Mon 11:24:40 PM 39.6689 -90.4375 24° Northeast 435 501 35,000  Level Kansas City Center
Mon 11:25:41 PM 39.7800 -90.3756 23° Northeast 434 499 35,000  Level Kansas City Center
Mon 11:26:42 PM 39.8906 -90.3136 23° Northeast 432 497 35,000  Level Kansas City Center
Mon 11:27:37 PM 39.9789 -90.2647 23° Northeast 434 499 35,000  Level Chicago Center
Mon 11:28:38 PM 40.0906 -90.2011 24° Northeast 436 502 35,000  Level Chicago Center
Mon 11:29:39 PM 40.2017 -90.1392 23° Northeast 434 499 35,000 -148 Level Chicago Center
Mon 11:30:40 PM 40.3344 -90.0628 24° Northeast 434 499 34,700 -492 Descending Chicago Center
Mon 11:31:41 PM 40.4439 -90.0000 24° Northeast 430 495 34,000 -344 Descending Chicago Center
Mon 11:32:42 PM 40.5314 -89.9081 39° Northeast 430 495 34,000  Level Chicago Center
Mon 11:33:43 PM 40.6186 -89.8039 42° Northeast 426 490 34,000 -738 Level Chicago Center
Mon 11:34:44 PM 40.7064 -89.6997 42° Northeast 422 486 32,500 -1,869 Descending Chicago Center
Mon 11:35:45 PM 40.7878 -89.5953 44° Northeast 413 475 30,200 -2,262 Descending Chicago Center
Mon 11:36:46 PM 40.8758 -89.4944 41° Northeast 418 481 27,900 -2,281 Descending Chicago Center
Mon 11:37:46 PM 40.9556 -89.3981 42° Northeast 398 458 25,600 -2,281 Descending Chicago Center
Mon 11:38:47 PM 41.0367 -89.2981 43° Northeast 396 456 23,300 -2,311 Descending Chicago Center
Mon 11:39:48 PM 41.1286 -89.1850 43° Northeast 386 444 20,900 -2,213 Descending Chicago Center
Mon 11:40:49 PM 41.2033 -89.0925 43° Northeast 370 426 18,800 -2,016 Descending Chicago Center
Mon 11:41:50 PM 41.2758 -89.0033 43° Northeast 356 410 16,800 -1,918 Descending Chicago Center
Mon 11:42:51 PM 41.3458 -88.9133 44° Northeast 352 405 14,900 -1,934 Descending Chicago Center
Mon 11:43:51 PM 41.4156 -88.8286 42° Northeast 340 391 12,900 -1,835 Descending Chicago Center
Mon 11:44:52 PM 41.4819 -88.7444 44° Northeast 329 379 11,200 -934 Descending Chicago Center
Mon 11:45:53 PM 41.5300 -88.6608 52° Northeast 284 327 11,000 -98 Descending Chicago Center
Mon 11:46:54 PM 41.5658 -88.5733 61° Northeast 268 308 11,000 -99 Level Chicago Center
Mon 11:47:54 PM 41.6281 -88.5072 38° Northeast 280 322 10,800 -1,091 Descending Chicago Center
Mon 11:48:55 PM 41.6908 -88.4442 37° Northeast 280 322 8,800 -1,820 Descending Chicago Center
Mon 11:49:56 PM 41.7525 -88.3825 37° Northeast 276 318 7,100 -893 Descending Chicago Center
Mon 11:50:56 PM 41.8131 -88.3214 37° Northeast 273 314 7,000 -50 Descending Chicago Center
Mon 11:51:57 PM 41.8678 -88.2647 38° Northeast 251 289 7,000 -443 Level Chicago Center
Mon 11:52:58 PM 41.9436 -88.2594 North 235 270 6,100 -934 Descending Chicago Center
Mon 11:53:59 PM 41.9664 -88.2128 57° Northeast 199 229 5,100 -1,041 Descending Chicago Center
Mon 11:54:59 PM 41.9683 -88.1436 88° East 189 217 4,000 -1,301 Descending Chicago Center
Mon 11:55:22 PM 41.9667 -88.1167 95° East 198 228 3,300 -1,247 Descending Chicago TRACON
Mon 11:56:16 PM 41.9667 -88.0500 90° East 180 207 2,400 -893 Descending Chicago TRACON
Mon 11:57:23 PM 41.9667 -87.9833 90° East 138 159 1,500 -744 Descending Chicago TRACON
Mon 11:58:17 PM 41.9667 -87.9500 90° East 132 152 900 -667 Descending Chicago TRACON

Login

Don't have an account? Register now (free) for customized features, flight alerts, and more!